createdAt,value
2023-02-03T00:04:19.593Z,34.03
2023-02-03T00:09:22.330Z,30.83
2023-02-03T00:14:25.211Z,41.35
2023-02-03T00:19:27.890Z,34.33
2023-02-03T00:24:30.781Z,31.95
2023-02-03T00:29:33.687Z,30.80
2023-02-03T00:34:36.308Z,30.92
2023-02-03T00:39:39.353Z,31.42
2023-02-03T00:44:42.075Z,26.77
2023-02-03T00:49:44.754Z,29.75
2023-02-03T00:54:47.469Z,30.92
2023-02-03T00:59:50.124Z,25.77
2023-02-03T01:04:52.781Z,29.00
2023-02-03T01:09:55.552Z,23.83
2023-02-03T01:14:58.254Z,27.73
2023-02-03T01:20:00.932Z,32.70
2023-02-03T01:25:05.531Z,28.58
2023-02-03T01:30:08.709Z,25.63
2023-02-03T01:35:11.536Z,26.48
2023-02-03T01:40:14.199Z,24.85
2023-02-03T01:45:19.983Z,27.17
2023-02-03T01:50:33.812Z,28.65
2023-02-03T01:55:41.011Z,39.17
2023-02-03T02:00:44.368Z,38.17
2023-02-03T02:06:01.472Z,38.80
2023-02-03T02:11:04.884Z,41.95
2023-02-03T02:16:14.977Z,29.80
2023-02-03T02:21:45.216Z,45.63
2023-02-03T02:26:57.149Z,43.65
2023-02-03T02:32:11.935Z,62.28
2023-02-03T02:37:26.446Z,52.88
2023-02-03T02:42:39.137Z,56.33
2023-02-03T02:47:42.011Z,51.58
2023-02-03T02:52:46.712Z,49.10
2023-02-03T02:57:50.275Z,37.47
2023-02-03T03:02:57.874Z,39.33
2023-02-03T03:08:03.237Z,28.67
2023-02-03T03:13:09.108Z,25.27
2023-02-03T03:18:21.535Z,27.95
2023-02-03T03:28:52.373Z,21.60
2023-02-03T03:33:55.157Z,21.70
2023-02-03T03:39:04.948Z,23.80
2023-02-03T03:44:11.714Z,24.95
2023-02-03T03:49:14.861Z,26.90
2023-02-03T03:54:19.709Z,24.23
2023-02-03T03:59:23.255Z,21.02
2023-02-03T04:04:26.509Z,25.17
2023-02-03T04:09:29.161Z,23.75
2023-02-03T04:14:38.297Z,25.60
2023-02-03T04:19:41.136Z,22.75
2023-02-03T04:34:50.622Z,25.02
2023-02-03T04:44:56.494Z,29.90
2023-02-03T04:49:59.243Z,30.60
2023-02-03T04:55:02.046Z,37.70
2023-02-03T05:00:06.136Z,35.00
2023-02-03T05:05:08.892Z,33.88
2023-02-03T05:10:11.610Z,45.35
2023-02-03T05:15:15.047Z,41.78
2023-02-03T05:20:18.058Z,47.65
2023-02-03T05:25:20.854Z,48.25
2023-02-03T05:30:23.719Z,46.92
2023-02-03T05:35:26.417Z,39.88
2023-02-03T05:40:47.860Z,53.35
2023-02-03T05:45:50.581Z,55.92
2023-02-03T05:50:53.492Z,46.00
2023-02-03T05:55:56.177Z,60.95
2023-02-03T06:00:58.821Z,63.33
2023-02-03T06:06:01.680Z,75.43
2023-02-03T06:11:04.435Z,60.10
2023-02-03T06:16:07.612Z,80.63
2023-02-03T06:21:10.317Z,62.83
2023-02-03T06:26:13.388Z,78.80
2023-02-03T06:31:16.248Z,113.82
2023-02-03T06:36:19.046Z,75.60
2023-02-03T06:41:21.846Z,90.00
2023-02-03T06:46:28.563Z,98.53
2023-02-03T06:51:31.409Z,68.78
2023-02-03T06:56:34.041Z,49.17
2023-02-03T07:01:37.615Z,77.23
2023-02-03T07:06:40.398Z,75.88
2023-02-03T07:11:43.170Z,70.10
2023-02-03T07:16:45.875Z,76.38
2023-02-03T07:21:48.694Z,68.28
2023-02-03T07:26:51.369Z,72.57
2023-02-03T07:31:54.284Z,77.10
2023-02-03T07:36:58.121Z,86.77
2023-02-03T07:42:00.690Z,70.90
2023-02-03T07:47:04.823Z,61.97
2023-02-03T07:52:15.076Z,59.10
2023-02-03T07:57:17.971Z,56.72
2023-02-03T08:02:20.671Z,54.47
2023-02-03T08:07:23.406Z,59.47
2023-02-03T08:12:26.370Z,51.80
2023-02-03T08:17:29.284Z,69.87
2023-02-03T08:22:31.920Z,59.20
2023-02-03T08:27:34.682Z,62.60
2023-02-03T08:32:37.328Z,56.95
2023-02-03T08:37:40.091Z,58.17
2023-02-03T08:42:42.778Z,48.95
2023-02-03T08:47:45.652Z,46.50
2023-02-03T08:52:48.361Z,35.67
2023-02-03T08:57:51.076Z,30.65
2023-02-03T09:02:53.721Z,23.40
2023-02-03T09:07:56.406Z,18.00
2023-02-03T09:12:59.040Z,18.58
2023-02-03T09:18:01.687Z,20.13
2023-02-03T09:23:04.449Z,16.08
2023-02-03T09:28:07.316Z,16.10
2023-02-03T09:33:10.491Z,12.47
2023-02-03T09:38:13.297Z,14.05
2023-02-03T09:43:43.500Z,14.13
2023-02-03T09:48:50.194Z,13.02
2023-02-03T09:54:06.806Z,20.25
2023-02-03T09:59:10.256Z,20.52
2023-02-03T10:04:31.127Z,16.03
2023-02-03T10:10:08.178Z,16.52
2023-02-03T10:15:10.825Z,18.27
2023-02-03T10:20:22.033Z,19.38
2023-02-03T10:25:38.216Z,19.50
2023-02-03T10:30:46.728Z,18.23
2023-02-03T10:35:53.491Z,18.92
2023-02-03T10:40:56.639Z,14.48
2023-02-03T10:46:00.200Z,13.50
2023-02-03T10:51:03.728Z,12.23
2023-02-03T10:56:16.256Z,12.57
2023-02-03T11:01:21.772Z,12.38
2023-02-03T11:06:25.400Z,13.95
2023-02-03T11:11:31.721Z,13.80
2023-02-03T11:16:37.341Z,12.55
2023-02-03T11:21:44.827Z,13.20
2023-02-03T11:26:51.863Z,13.07
2023-02-03T11:32:04.091Z,13.30
2023-02-03T11:37:42.292Z,11.75
2023-02-03T11:42:59.267Z,12.00
2023-02-03T11:48:03.371Z,6.82
2023-02-03T11:58:38.827Z,10.35
2023-02-03T12:04:02.928Z,14.15
2023-02-03T12:09:38.163Z,14.75
2023-02-03T12:14:59.611Z,10.38
2023-02-03T12:20:22.030Z,9.23
2023-02-03T12:25:49.350Z,13.90
2023-02-03T12:30:57.392Z,12.57
2023-02-03T12:36:10.293Z,14.45
2023-02-03T12:41:16.571Z,10.82
2023-02-03T12:46:31.865Z,13.75
2023-02-03T12:51:40.625Z,12.95
2023-02-03T12:56:44.666Z,15.07
2023-02-03T13:07:18.381Z,18.60
2023-02-03T13:12:27.871Z,13.18
2023-02-03T13:17:46.668Z,17.95
2023-02-03T13:22:49.299Z,17.65
2023-02-03T13:27:58.475Z,19.15
2023-02-03T13:33:30.914Z,21.60
2023-02-03T13:39:13.894Z,17.37
2023-02-03T13:44:20.118Z,21.42
2023-02-03T13:49:29.212Z,20.48
2023-02-03T13:54:39.446Z,19.85
2023-02-03T13:59:43.988Z,16.70
2023-02-03T14:04:46.754Z,15.95
2023-02-03T14:10:14.883Z,15.35
2023-02-03T14:15:32.584Z,12.90
2023-02-03T14:20:42.661Z,12.52
2023-02-03T14:26:05.760Z,12.77
2023-02-03T14:31:16.979Z,15.27
2023-02-03T14:36:31.967Z,17.10
2023-02-03T14:41:49.608Z,16.60
2023-02-03T14:46:53.752Z,23.08
2023-02-03T14:52:25.638Z,15.98
2023-02-03T14:57:40.188Z,15.18
2023-02-03T15:03:10.725Z,15.40
2023-02-03T15:08:33.554Z,16.30
2023-02-03T15:13:36.286Z,10.18
2023-02-03T15:18:41.161Z,13.35
2023-02-03T15:23:48.510Z,15.07
2023-02-03T15:28:59.101Z,16.73
2023-02-03T15:34:14.272Z,14.93
2023-02-03T15:39:39.142Z,13.77
2023-02-03T15:44:51.204Z,13.25
2023-02-03T15:50:02.400Z,14.63
2023-02-03T15:55:17.945Z,13.43
2023-02-03T16:00:38.651Z,14.57
2023-02-03T16:05:42.751Z,16.20
2023-02-03T16:10:45.494Z,14.13
2023-02-03T16:16:14.789Z,14.68
2023-02-03T16:21:29.686Z,18.02
2023-02-03T16:26:34.001Z,16.52
2023-02-03T16:32:00.900Z,16.60
2023-02-03T16:37:39.095Z,17.52
2023-02-03T16:43:00.684Z,17.35
2023-02-03T16:48:22.344Z,17.83
2023-02-03T16:53:32.987Z,19.67
2023-02-03T16:58:35.766Z,23.92
2023-02-03T17:03:40.108Z,22.45
2023-02-03T17:08:43.170Z,19.23
2023-02-03T17:13:46.997Z,24.25
2023-02-03T17:18:49.885Z,23.73
2023-02-03T17:23:52.725Z,24.40
2023-02-03T17:28:55.598Z,26.50
2023-02-03T17:33:58.695Z,22.00
2023-02-03T17:55:02.189Z,23.33
2023-02-03T18:05:14.977Z,21.67
2023-02-03T18:10:17.873Z,25.77
2023-02-03T18:15:20.745Z,25.17
2023-02-03T18:20:23.384Z,22.48
2023-02-03T18:25:25.998Z,20.40
2023-02-03T18:30:28.970Z,19.65
2023-02-03T18:35:33.781Z,21.88
2023-02-03T18:40:39.629Z,20.50
2023-02-03T18:45:42.340Z,18.95
2023-02-03T18:50:45.209Z,17.47
2023-02-03T18:55:47.849Z,19.37
2023-02-03T19:00:51.011Z,17.40
2023-02-03T19:05:54.590Z,13.82
2023-02-03T19:10:57.188Z,18.00
2023-02-03T19:16:02.111Z,17.83
2023-02-03T19:21:05.085Z,15.35
2023-02-03T19:26:08.338Z,16.90
2023-02-03T19:31:17.924Z,20.40
2023-02-03T19:36:20.907Z,17.65
2023-02-03T19:41:25.970Z,15.33
2023-02-03T19:46:32.906Z,19.45
2023-02-03T19:51:35.926Z,19.33
2023-02-03T19:56:39.037Z,18.98
2023-02-03T20:01:42.751Z,16.58
2023-02-03T20:06:45.716Z,17.77
2023-02-03T20:11:48.418Z,18.43
2023-02-03T20:16:51.482Z,13.77
2023-02-03T20:21:54.206Z,20.53
2023-02-03T20:26:56.923Z,22.25
2023-02-03T20:31:59.617Z,22.07
2023-02-03T20:37:02.323Z,15.70
2023-02-03T20:42:18.728Z,13.90
2023-02-03T20:47:22.916Z,17.15
2023-02-03T20:52:25.627Z,19.33
2023-02-03T20:57:28.387Z,16.73
2023-02-03T21:02:53.915Z,23.52
2023-02-03T21:07:56.628Z,22.63
2023-02-03T21:12:59.321Z,20.42
2023-02-03T21:18:01.914Z,20.60
2023-02-03T21:23:07.385Z,23.60
2023-02-03T21:28:22.723Z,21.65
2023-02-03T21:33:29.467Z,24.40
2023-02-03T21:38:33.430Z,20.20
2023-02-03T21:43:36.697Z,21.00
2023-02-03T21:48:40.388Z,20.30
2023-02-03T21:53:54.869Z,22.20
2023-02-03T21:58:59.258Z,21.60
2023-02-03T22:04:04.181Z,20.77
2023-02-03T22:09:07.951Z,21.80
2023-02-03T22:14:10.637Z,22.20
2023-02-03T22:19:13.770Z,17.80
2023-02-03T22:24:16.434Z,21.73
2023-02-03T22:29:19.098Z,18.55
2023-02-03T22:34:23.391Z,17.13
2023-02-03T22:39:26.332Z,17.50
2023-02-03T22:44:28.982Z,13.00
2023-02-03T22:49:31.641Z,17.25
2023-02-03T22:54:35.465Z,16.73
2023-02-03T22:59:38.260Z,23.23
2023-02-03T23:04:41.050Z,19.07
2023-02-03T23:09:43.730Z,14.45
2023-02-03T23:14:46.356Z,19.98
2023-02-03T23:19:49.298Z,16.92
2023-02-03T23:24:51.910Z,19.40
2023-02-03T23:29:54.750Z,21.40
2023-02-03T23:35:16.101Z,23.33
2023-02-03T23:40:19.111Z,24.25
2023-02-03T23:45:21.756Z,17.90
2023-02-03T23:50:24.510Z,21.60
2023-02-03T23:55:27.272Z,19.77
